sensor_id;sensor_type;location;lat;lon;timestamp;pressure;altitude;pressure_sealevel;temperature;humidity
65054;BME280;51639;47.828;35.038;2023-10-19T00:09:22;100360.72;;;11.03;73.92
65054;BME280;51639;47.828;35.038;2023-10-19T00:24:24;100347.75;;;11.34;72.62
65054;BME280;51639;47.828;35.038;2023-10-19T00:39:26;100337.63;;;11.34;72.45
65054;BME280;51639;47.828;35.038;2023-10-19T00:54:34;100343.53;;;11.09;74.64
65054;BME280;51639;47.828;35.038;2023-10-19T01:09:56;100334.50;;;11.36;76.82
65054;BME280;51639;47.828;35.038;2023-10-19T01:25:04;100335.13;;;11.43;75.49
65054;BME280;51639;47.828;35.038;2023-10-19T01:40:10;100338.25;;;11.42;76.30
65054;BME280;51639;47.828;35.038;2023-10-19T01:55:16;100335.28;;;11.56;76.78
65054;BME280;51639;47.828;35.038;2023-10-19T02:10:22;100330.31;;;11.51;78.54
65054;BME280;51639;47.828;35.038;2023-10-19T02:25:24;100333.47;;;11.49;79.70
65054;BME280;51639;47.828;35.038;2023-10-19T02:40:30;100322.84;;;11.35;82.87
65054;BME280;51639;47.828;35.038;2023-10-19T02:55:33;100318.25;;;11.72;82.84
65054;BME280;51639;47.828;35.038;2023-10-19T03:10:35;100310.00;;;11.95;82.73
65054;BME280;51639;47.828;35.038;2023-10-19T03:25:46;100309.72;;;11.89;82.73
65054;BME280;51639;47.828;35.038;2023-10-19T03:41:17;100314.97;;;12.16;83.02
65054;BME280;51639;47.828;35.038;2023-10-19T03:56:23;100306.59;;;12.07;82.44
65054;BME280;51639;47.828;35.038;2023-10-19T04:11:26;100313.84;;;11.98;83.87
65054;BME280;51639;47.828;35.038;2023-10-19T04:26:34;100314.69;;;11.94;84.26
65054;BME280;51639;47.828;35.038;2023-10-19T04:41:40;100339.59;;;11.93;85.75
65054;BME280;51639;47.828;35.038;2023-10-19T04:56:42;100337.34;;;12.24;85.53
65054;BME280;51639;47.828;35.038;2023-10-19T05:11:44;100356.16;;;12.83;83.05
65054;BME280;51639;47.828;35.038;2023-10-19T05:26:48;100353.53;;;13.83;76.72
65054;BME280;51639;47.828;35.038;2023-10-19T05:41:50;100362.38;;;15.45;72.62
65054;BME280;51639;47.828;35.038;2023-10-19T05:56:52;100365.50;;;17.07;65.56
65054;BME280;51639;47.828;35.038;2023-10-19T06:11:55;100377.13;;;18.50;60.98
65054;BME280;51639;47.828;35.038;2023-10-19T06:26:57;100376.09;;;19.19;58.78
65054;BME280;51639;47.828;35.038;2023-10-19T06:42:00;100374.56;;;20.16;57.96
65054;BME280;51639;47.828;35.038;2023-10-19T06:57:05;100373.34;;;20.87;56.12
65054;BME280;51639;47.828;35.038;2023-10-19T07:12:07;100377.81;;;21.71;54.76
65054;BME280;51639;47.828;35.038;2023-10-19T07:27:11;100384.19;;;22.08;53.93
65054;BME280;51639;47.828;35.038;2023-10-19T07:42:37;100389.47;;;22.92;52.25
65054;BME280;51639;47.828;35.038;2023-10-19T07:57:39;100375.31;;;23.43;51.27
65054;BME280;51639;47.828;35.038;2023-10-19T08:12:45;100378.84;;;24.72;48.98
65054;BME280;51639;47.828;35.038;2023-10-19T08:27:49;100389.44;;;25.32;47.65
65054;BME280;51639;47.828;35.038;2023-10-19T08:42:52;100384.59;;;24.97;47.07
65054;BME280;51639;47.828;35.038;2023-10-19T08:57:55;100369.34;;;25.56;46.12
65054;BME280;51639;47.828;35.038;2023-10-19T09:13:04;100351.22;;;26.14;45.83
65054;BME280;51639;47.828;35.038;2023-10-19T09:28:09;100335.44;;;25.98;45.94
65054;BME280;51639;47.828;35.038;2023-10-19T09:43:18;100333.84;;;26.33;44.34
65054;BME280;51639;47.828;35.038;2023-10-19T09:58:27;100296.31;;;26.64;44.50
65054;BME280;51639;47.828;35.038;2023-10-19T10:13:37;100291.13;;;27.11;42.81
65054;BME280;51639;47.828;35.038;2023-10-19T10:28:46;100282.44;;;26.58;42.88
65054;BME280;51639;47.828;35.038;2023-10-19T10:43:56;100262.13;;;26.63;43.05
65054;BME280;51639;47.828;35.038;2023-10-19T10:58:59;100246.31;;;25.85;44.36
65054;BME280;51639;47.828;35.038;2023-10-19T11:14:09;100245.19;;;24.52;46.66
65054;BME280;51639;47.828;35.038;2023-10-19T11:29:16;100233.78;;;25.43;43.78
65054;BME280;51639;47.828;35.038;2023-10-19T11:44:18;100233.84;;;25.02;44.25
65054;BME280;51639;47.828;35.038;2023-10-19T11:59:21;100219.06;;;24.13;45.66
65054;BME280;51639;47.828;35.038;2023-10-19T12:14:23;100228.47;;;23.04;47.50
65054;BME280;51639;47.828;35.038;2023-10-19T12:29:25;100235.97;;;22.17;50.48
65054;BME280;51639;47.828;35.038;2023-10-19T12:44:27;100236.00;;;21.85;50.85
65054;BME280;51639;47.828;35.038;2023-10-19T13:15:48;100216.13;;;21.18;51.81
65054;BME280;51639;47.828;35.038;2023-10-19T13:30:51;100202.28;;;20.87;53.79
65054;BME280;51639;47.828;35.038;2023-10-19T13:45:54;100182.22;;;20.40;57.12
65054;BME280;51639;47.828;35.038;2023-10-19T14:00:59;100167.44;;;19.82;59.06
65054;BME280;51639;47.828;35.038;2023-10-19T14:16:27;100176.41;;;19.48;60.97
65054;BME280;51639;47.828;35.038;2023-10-19T14:31:29;100168.66;;;19.31;63.05
65054;BME280;51639;47.828;35.038;2023-10-19T14:46:31;100150.56;;;19.10;64.35
65054;BME280;51639;47.828;35.038;2023-10-19T15:01:34;100171.91;;;18.86;64.68
65054;BME280;51639;47.828;35.038;2023-10-19T15:16:37;100162.56;;;18.68;64.26
65054;BME280;51639;47.828;35.038;2023-10-19T15:31:39;100167.56;;;18.55;63.68
65054;BME280;51639;47.828;35.038;2023-10-19T15:46:53;100188.97;;;18.51;63.56
65054;BME280;51639;47.828;35.038;2023-10-19T16:01:55;100179.94;;;18.36;63.96
65054;BME280;51639;47.828;35.038;2023-10-19T16:16:59;100176.84;;;18.19;64.14
65054;BME280;51639;47.828;35.038;2023-10-19T16:32:02;100171.31;;;18.04;61.69
65054;BME280;51639;47.828;35.038;2023-10-19T16:47:05;100168.41;;;17.75;59.66
65054;BME280;51639;47.828;35.038;2023-10-19T17:02:08;100154.75;;;17.66;58.60
65054;BME280;51639;47.828;35.038;2023-10-19T17:17:11;100179.72;;;17.26;58.41
65054;BME280;51639;47.828;35.038;2023-10-19T17:32:14;100175.19;;;17.04;58.84
65054;BME280;51639;47.828;35.038;2023-10-19T17:47:16;100198.25;;;16.80;59.38
65054;BME280;51639;47.828;35.038;2023-10-19T18:02:19;100205.84;;;16.48;60.33
65054;BME280;51639;47.828;35.038;2023-10-19T18:17:22;100196.34;;;16.13;61.03
65054;BME280;51639;47.828;35.038;2023-10-19T18:32:32;100191.13;;;15.87;63.98
65054;BME280;51639;47.828;35.038;2023-10-19T18:47:35;100185.47;;;15.73;65.59
65054;BME280;51639;47.828;35.038;2023-10-19T19:02:37;100178.38;;;15.53;69.72
65054;BME280;51639;47.828;35.038;2023-10-19T19:17:40;100168.16;;;15.76;73.37
65054;BME280;51639;47.828;35.038;2023-10-19T19:32:44;100153.66;;;15.66;76.30
65054;BME280;51639;47.828;35.038;2023-10-19T19:47:47;100152.75;;;15.69;77.83
65054;BME280;51639;47.828;35.038;2023-10-19T20:02:49;100146.78;;;15.61;79.15
65054;BME280;51639;47.828;35.038;2023-10-19T20:17:51;100109.53;;;15.55;80.20
65054;BME280;51639;47.828;35.038;2023-10-19T20:32:53;100110.50;;;15.30;82.30
65054;BME280;51639;47.828;35.038;2023-10-19T20:47:57;100088.69;;;15.08;85.67
65054;BME280;51639;47.828;35.038;2023-10-19T21:02:59;100079.19;;;14.91;88.72
65054;BME280;51639;47.828;35.038;2023-10-19T21:18:02;100077.56;;;14.72;91.80
65054;BME280;51639;47.828;35.038;2023-10-19T21:33:04;100050.28;;;14.81;90.62
65054;BME280;51639;47.828;35.038;2023-10-19T21:48:07;100053.78;;;14.81;91.59
65054;BME280;51639;47.828;35.038;2023-10-19T22:03:09;100079.22;;;14.69;91.59
65054;BME280;51639;47.828;35.038;2023-10-19T22:18:14;100066.28;;;14.60;92.87
65054;BME280;51639;47.828;35.038;2023-10-19T22:33:16;100052.19;;;14.62;96.47
65054;BME280;51639;47.828;35.038;2023-10-19T22:48:18;100048.06;;;14.66;98.46
65054;BME280;51639;47.828;35.038;2023-10-19T23:03:20;100041.09;;;14.65;99.39
65054;BME280;51639;47.828;35.038;2023-10-19T23:18:22;100011.28;;;14.49;100.00
65054;BME280;51639;47.828;35.038;2023-10-19T23:33:24;99994.50;;;14.60;100.00
65054;BME280;51639;47.828;35.038;2023-10-19T23:48:26;99968.53;;;14.64;100.00
